Terminal Aerodrome Forecast
Issued by NWS Tuscon, AZ

Home | Current Version | Previous Version | Text Only | Print | Product List | Glossary On
Versions: 1 2 3 4 5 6 7 8 9 10 11 12
000
FTUS45 KTWC 160528
TAFTUS
TAF
KTUS 160528Z 1606/1706 14008KT P6SM BKN250
     FM161400 12018G26KT P6SM SCT150 BKN250
     FM162200 10013KT P6SM SCT150 BKN250
     FM170300 13012KT P6SM SCT250=

USA.gov is the U.S. government's official web portal to all federal, state and local government web resources and services.